sensor_id;sensor_type;location;lat;lon;timestamp;P1;durP1;ratioP1;P2;durP2;ratioP2
21091;SDS011;10704;42.678;23.288;2023-07-20T00:01:58;11.75;;;2.90;;
21091;SDS011;10704;42.678;23.288;2023-07-20T00:04:24;10.77;;;2.92;;
21091;SDS011;10704;42.678;23.288;2023-07-20T00:06:50;11.00;;;2.88;;
21091;SDS011;10704;42.678;23.288;2023-07-20T00:09:16;11.43;;;3.47;;
21091;SDS011;10704;42.678;23.288;2023-07-20T00:11:47;8.98;;;2.97;;
21091;SDS011;10704;42.678;23.288;2023-07-20T00:14:16;5.90;;;2.67;;
21091;SDS011;10704;42.678;23.288;2023-07-20T00:16:42;7.30;;;2.92;;
21091;SDS011;10704;42.678;23.288;2023-07-20T00:19:08;9.75;;;2.60;;
21091;SDS011;10704;42.678;23.288;2023-07-20T00:21:35;11.90;;;3.40;;
21091;SDS011;10704;42.678;23.288;2023-07-20T00:24:02;9.35;;;2.50;;
21091;SDS011;10704;42.678;23.288;2023-07-20T00:26:27;12.90;;;3.20;;
21091;SDS011;10704;42.678;23.288;2023-07-20T00:28:53;9.43;;;3.13;;
21091;SDS011;10704;42.678;23.288;2023-07-20T00:31:19;7.07;;;2.60;;
21091;SDS011;10704;42.678;23.288;2023-07-20T00:33:45;9.90;;;3.05;;
21091;SDS011;10704;42.678;23.288;2023-07-20T00:36:12;8.05;;;2.80;;
21091;SDS011;10704;42.678;23.288;2023-07-20T00:38:38;7.22;;;3.00;;
21091;SDS011;10704;42.678;23.288;2023-07-20T00:41:05;8.80;;;2.90;;
21091;SDS011;10704;42.678;23.288;2023-07-20T00:43:30;7.18;;;2.83;;
21091;SDS011;10704;42.678;23.288;2023-07-20T00:45:56;13.55;;;3.35;;
21091;SDS011;10704;42.678;23.288;2023-07-20T00:48:23;10.82;;;3.15;;
21091;SDS011;10704;42.678;23.288;2023-07-20T00:50:48;10.82;;;3.20;;
21091;SDS011;10704;42.678;23.288;2023-07-20T00:53:15;7.57;;;3.03;;
21091;SDS011;10704;42.678;23.288;2023-07-20T00:55:41;10.20;;;3.30;;
21091;SDS011;10704;42.678;23.288;2023-07-20T00:58:07;8.05;;;3.03;;
21091;SDS011;10704;42.678;23.288;2023-07-20T01:00:34;8.10;;;2.55;;
21091;SDS011;10704;42.678;23.288;2023-07-20T01:03:00;13.27;;;3.03;;
21091;SDS011;10704;42.678;23.288;2023-07-20T01:05:29;9.57;;;3.20;;
21091;SDS011;10704;42.678;23.288;2023-07-20T01:08:13;5.70;;;2.78;;
21091;SDS011;10704;42.678;23.288;2023-07-20T01:10:54;7.30;;;2.50;;
21091;SDS011;10704;42.678;23.288;2023-07-20T01:13:24;8.80;;;3.30;;
21091;SDS011;10704;42.678;23.288;2023-07-20T01:16:00;7.50;;;2.90;;
21091;SDS011;10704;42.678;23.288;2023-07-20T01:18:26;8.05;;;3.40;;
21091;SDS011;10704;42.678;23.288;2023-07-20T01:20:58;8.63;;;3.05;;
21091;SDS011;10704;42.678;23.288;2023-07-20T01:26:38;11.82;;;2.75;;
21091;SDS011;10704;42.678;23.288;2023-07-20T01:29:29;15.15;;;3.65;;
21091;SDS011;10704;42.678;23.288;2023-07-20T01:32:06;9.73;;;3.20;;
21091;SDS011;10704;42.678;23.288;2023-07-20T01:34:35;7.90;;;2.85;;
21091;SDS011;10704;42.678;23.288;2023-07-20T01:37:02;11.35;;;2.65;;
21091;SDS011;10704;42.678;23.288;2023-07-20T01:39:30;10.75;;;2.95;;
21091;SDS011;10704;42.678;23.288;2023-07-20T01:41:58;9.35;;;3.05;;
21091;SDS011;10704;42.678;23.288;2023-07-20T01:44:24;9.73;;;2.90;;
21091;SDS011;10704;42.678;23.288;2023-07-20T01:46:51;7.40;;;2.72;;
21091;SDS011;10704;42.678;23.288;2023-07-20T01:49:17;12.00;;;2.95;;
21091;SDS011;10704;42.678;23.288;2023-07-20T01:51:43;6.82;;;2.80;;
21091;SDS011;10704;42.678;23.288;2023-07-20T01:54:09;9.57;;;2.72;;
21091;SDS011;10704;42.678;23.288;2023-07-20T01:56:35;12.38;;;3.10;;
21091;SDS011;10704;42.678;23.288;2023-07-20T01:59:00;11.55;;;3.15;;
21091;SDS011;10704;42.678;23.288;2023-07-20T02:01:26;12.05;;;3.25;;
21091;SDS011;10704;42.678;23.288;2023-07-20T02:03:53;17.27;;;3.47;;
21091;SDS011;10704;42.678;23.288;2023-07-20T02:06:19;10.90;;;3.25;;
21091;SDS011;10704;42.678;23.288;2023-07-20T02:08:47;14.95;;;3.80;;
21091;SDS011;10704;42.678;23.288;2023-07-20T02:11:13;6.55;;;2.92;;
21091;SDS011;10704;42.678;23.288;2023-07-20T02:13:39;9.57;;;3.28;;
21091;SDS011;10704;42.678;23.288;2023-07-20T02:16:05;8.60;;;3.17;;
21091;SDS011;10704;42.678;23.288;2023-07-20T02:18:31;12.88;;;3.33;;
21091;SDS011;10704;42.678;23.288;2023-07-20T02:20:57;8.85;;;2.80;;
21091;SDS011;10704;42.678;23.288;2023-07-20T02:23:23;12.68;;;3.42;;
21091;SDS011;10704;42.678;23.288;2023-07-20T02:25:48;10.02;;;3.20;;
21091;SDS011;10704;42.678;23.288;2023-07-20T02:28:14;7.35;;;2.95;;
21091;SDS011;10704;42.678;23.288;2023-07-20T02:30:40;8.55;;;3.35;;
21091;SDS011;10704;42.678;23.288;2023-07-20T02:33:06;8.43;;;3.55;;
21091;SDS011;10704;42.678;23.288;2023-07-20T02:35:33;8.80;;;3.38;;
21091;SDS011;10704;42.678;23.288;2023-07-20T02:37:59;9.80;;;3.40;;
21091;SDS011;10704;42.678;23.288;2023-07-20T02:40:25;8.75;;;3.25;;
21091;SDS011;10704;42.678;23.288;2023-07-20T02:42:50;11.73;;;3.53;;
21091;SDS011;10704;42.678;23.288;2023-07-20T02:45:16;9.50;;;3.17;;
21091;SDS011;10704;42.678;23.288;2023-07-20T02:47:42;11.60;;;3.50;;
21091;SDS011;10704;42.678;23.288;2023-07-20T02:50:08;13.32;;;3.92;;
21091;SDS011;10704;42.678;23.288;2023-07-20T02:52:34;9.77;;;3.67;;
21091;SDS011;10704;42.678;23.288;2023-07-20T02:55:00;11.20;;;3.53;;
21091;SDS011;10704;42.678;23.288;2023-07-20T02:57:26;10.02;;;3.25;;
21091;SDS011;10704;42.678;23.288;2023-07-20T02:59:52;13.88;;;3.90;;
21091;SDS011;10704;42.678;23.288;2023-07-20T03:02:18;11.38;;;3.22;;
21091;SDS011;10704;42.678;23.288;2023-07-20T03:04:44;13.25;;;3.83;;
21091;SDS011;10704;42.678;23.288;2023-07-20T03:07:10;11.50;;;3.70;;
21091;SDS011;10704;42.678;23.288;2023-07-20T03:09:36;12.85;;;4.20;;
21091;SDS011;10704;42.678;23.288;2023-07-20T03:12:02;11.73;;;3.92;;
21091;SDS011;10704;42.678;23.288;2023-07-20T03:14:30;17.67;;;4.40;;
21091;SDS011;10704;42.678;23.288;2023-07-20T03:16:56;17.88;;;4.18;;
21091;SDS011;10704;42.678;23.288;2023-07-20T03:19:22;16.52;;;4.32;;
21091;SDS011;10704;42.678;23.288;2023-07-20T03:21:48;9.95;;;4.13;;
21091;SDS011;10704;42.678;23.288;2023-07-20T03:24:14;16.50;;;3.85;;
21091;SDS011;10704;42.678;23.288;2023-07-20T03:26:40;11.45;;;3.83;;
21091;SDS011;10704;42.678;23.288;2023-07-20T03:29:06;12.45;;;4.18;;
21091;SDS011;10704;42.678;23.288;2023-07-20T03:31:33;8.30;;;3.72;;
21091;SDS011;10704;42.678;23.288;2023-07-20T03:33:59;14.98;;;3.95;;
21091;SDS011;10704;42.678;23.288;2023-07-20T03:36:25;9.50;;;4.05;;
21091;SDS011;10704;42.678;23.288;2023-07-20T03:38:51;13.90;;;4.32;;
21091;SDS011;10704;42.678;23.288;2023-07-20T03:41:16;12.02;;;4.57;;
21091;SDS011;10704;42.678;23.288;2023-07-20T03:43:44;10.95;;;4.38;;
21091;SDS011;10704;42.678;23.288;2023-07-20T03:46:10;18.25;;;5.38;;
21091;SDS011;10704;42.678;23.288;2023-07-20T03:48:37;14.95;;;4.95;;
21091;SDS011;10704;42.678;23.288;2023-07-20T03:51:03;16.60;;;6.00;;
21091;SDS011;10704;42.678;23.288;2023-07-20T03:53:29;14.10;;;6.00;;
21091;SDS011;10704;42.678;23.288;2023-07-20T03:55:55;12.50;;;5.97;;
21091;SDS011;10704;42.678;23.288;2023-07-20T03:58:21;12.57;;;4.18;;
21091;SDS011;10704;42.678;23.288;2023-07-20T04:00:48;14.05;;;4.07;;
21091;SDS011;10704;42.678;23.288;2023-07-20T04:03:15;11.15;;;4.57;;
21091;SDS011;10704;42.678;23.288;2023-07-20T04:05:41;10.93;;;4.38;;
21091;SDS011;10704;42.678;23.288;2023-07-20T04:08:08;14.05;;;4.72;;
21091;SDS011;10704;42.678;23.288;2023-07-20T04:10:34;12.93;;;4.25;;
21091;SDS011;10704;42.678;23.288;2023-07-20T04:13:00;10.75;;;4.20;;
21091;SDS011;10704;42.678;23.288;2023-07-20T04:15:26;11.35;;;4.97;;
21091;SDS011;10704;42.678;23.288;2023-07-20T04:17:52;9.80;;;4.70;;
21091;SDS011;10704;42.678;23.288;2023-07-20T04:20:18;11.20;;;5.32;;
21091;SDS011;10704;42.678;23.288;2023-07-20T04:22:44;15.80;;;4.25;;
21091;SDS011;10704;42.678;23.288;2023-07-20T04:25:12;16.17;;;5.13;;
21091;SDS011;10704;42.678;23.288;2023-07-20T04:27:38;11.82;;;4.30;;
21091;SDS011;10704;42.678;23.288;2023-07-20T04:30:06;10.93;;;4.75;;
21091;SDS011;10704;42.678;23.288;2023-07-20T04:32:33;13.52;;;4.30;;
21091;SDS011;10704;42.678;23.288;2023-07-20T04:35:01;11.82;;;4.50;;
21091;SDS011;10704;42.678;23.288;2023-07-20T04:37:31;8.63;;;3.88;;
21091;SDS011;10704;42.678;23.288;2023-07-20T04:39:58;18.10;;;4.15;;
21091;SDS011;10704;42.678;23.288;2023-07-20T04:42:24;12.82;;;4.43;;
21091;SDS011;10704;42.678;23.288;2023-07-20T04:44:49;10.90;;;4.40;;
21091;SDS011;10704;42.678;23.288;2023-07-20T04:47:15;13.18;;;4.30;;
21091;SDS011;10704;42.678;23.288;2023-07-20T04:49:41;14.30;;;3.97;;
21091;SDS011;10704;42.678;23.288;2023-07-20T04:52:07;14.38;;;3.83;;
21091;SDS011;10704;42.678;23.288;2023-07-20T04:54:33;9.75;;;3.40;;
21091;SDS011;10704;42.678;23.288;2023-07-20T04:56:59;16.75;;;3.80;;
21091;SDS011;10704;42.678;23.288;2023-07-20T04:59:25;14.55;;;4.05;;
21091;SDS011;10704;42.678;23.288;2023-07-20T05:01:51;14.80;;;4.30;;
21091;SDS011;10704;42.678;23.288;2023-07-20T05:04:17;10.80;;;3.60;;
21091;SDS011;10704;42.678;23.288;2023-07-20T05:06:43;10.48;;;3.78;;
21091;SDS011;10704;42.678;23.288;2023-07-20T05:09:10;14.18;;;3.47;;
21091;SDS011;10704;42.678;23.288;2023-07-20T05:11:35;13.75;;;4.65;;
21091;SDS011;10704;42.678;23.288;2023-07-20T05:14:02;9.07;;;3.40;;
21091;SDS011;10704;42.678;23.288;2023-07-20T05:16:28;12.48;;;4.25;;
21091;SDS011;10704;42.678;23.288;2023-07-20T05:18:59;12.45;;;4.13;;
21091;SDS011;10704;42.678;23.288;2023-07-20T05:21:25;10.23;;;4.13;;
21091;SDS011;10704;42.678;23.288;2023-07-20T05:23:51;10.50;;;4.25;;
21091;SDS011;10704;42.678;23.288;2023-07-20T05:26:17;10.10;;;3.42;;
21091;SDS011;10704;42.678;23.288;2023-07-20T05:28:43;12.95;;;3.72;;
21091;SDS011;10704;42.678;23.288;2023-07-20T05:31:08;10.55;;;3.60;;
21091;SDS011;10704;42.678;23.288;2023-07-20T05:33:34;10.00;;;3.85;;
21091;SDS011;10704;42.678;23.288;2023-07-20T05:36:00;12.32;;;3.88;;
21091;SDS011;10704;42.678;23.288;2023-07-20T05:38:26;14.52;;;4.63;;
21091;SDS011;10704;42.678;23.288;2023-07-20T05:40:52;9.40;;;4.18;;
21091;SDS011;10704;42.678;23.288;2023-07-20T05:43:26;24.08;;;4.07;;
21091;SDS011;10704;42.678;23.288;2023-07-20T05:45:51;11.00;;;4.18;;
21091;SDS011;10704;42.678;23.288;2023-07-20T05:48:17;13.73;;;3.47;;
21091;SDS011;10704;42.678;23.288;2023-07-20T05:50:43;14.90;;;3.95;;
21091;SDS011;10704;42.678;23.288;2023-07-20T05:53:09;12.75;;;4.38;;
21091;SDS011;10704;42.678;23.288;2023-07-20T05:55:35;14.55;;;3.95;;
21091;SDS011;10704;42.678;23.288;2023-07-20T05:58:00;10.73;;;3.67;;
21091;SDS011;10704;42.678;23.288;2023-07-20T06:00:26;15.25;;;4.40;;
21091;SDS011;10704;42.678;23.288;2023-07-20T06:02:53;10.65;;;3.67;;
21091;SDS011;10704;42.678;23.288;2023-07-20T06:05:21;9.50;;;3.80;;
21091;SDS011;10704;42.678;23.288;2023-07-20T06:07:49;11.88;;;3.25;;
21091;SDS011;10704;42.678;23.288;2023-07-20T06:10:19;12.68;;;4.13;;
21091;SDS011;10704;42.678;23.288;2023-07-20T06:12:45;7.90;;;3.72;;
21091;SDS011;10704;42.678;23.288;2023-07-20T06:15:27;7.57;;;3.42;;
21091;SDS011;10704;42.678;23.288;2023-07-20T06:17:57;11.27;;;3.65;;
21091;SDS011;10704;42.678;23.288;2023-07-20T06:20:24;8.73;;;3.88;;
21091;SDS011;10704;42.678;23.288;2023-07-20T06:22:50;14.10;;;4.20;;
21091;SDS011;10704;42.678;23.288;2023-07-20T06:25:16;13.82;;;4.45;;
21091;SDS011;10704;42.678;23.288;2023-07-20T06:27:42;10.93;;;4.72;;
21091;SDS011;10704;42.678;23.288;2023-07-20T06:30:08;12.95;;;4.28;;
21091;SDS011;10704;42.678;23.288;2023-07-20T06:32:35;12.15;;;4.07;;
21091;SDS011;10704;42.678;23.288;2023-07-20T06:35:01;8.63;;;4.43;;
21091;SDS011;10704;42.678;23.288;2023-07-20T06:37:27;11.45;;;4.93;;
21091;SDS011;10704;42.678;23.288;2023-07-20T06:39:53;18.85;;;4.80;;
21091;SDS011;10704;42.678;23.288;2023-07-20T06:42:19;16.52;;;4.60;;
21091;SDS011;10704;42.678;23.288;2023-07-20T06:44:45;14.95;;;4.45;;
21091;SDS011;10704;42.678;23.288;2023-07-20T06:47:11;13.77;;;4.10;;
21091;SDS011;10704;42.678;23.288;2023-07-20T06:49:37;15.60;;;4.72;;
21091;SDS011;10704;42.678;23.288;2023-07-20T06:52:03;9.93;;;4.57;;
21091;SDS011;10704;42.678;23.288;2023-07-20T06:54:29;12.25;;;4.47;;
21091;SDS011;10704;42.678;23.288;2023-07-20T06:56:55;13.98;;;4.60;;
21091;SDS011;10704;42.678;23.288;2023-07-20T06:59:20;10.57;;;4.15;;
21091;SDS011;10704;42.678;23.288;2023-07-20T07:01:46;12.07;;;4.45;;
21091;SDS011;10704;42.678;23.288;2023-07-20T07:04:12;13.23;;;4.63;;
21091;SDS011;10704;42.678;23.288;2023-07-20T07:06:38;15.20;;;5.13;;
21091;SDS011;10704;42.678;23.288;2023-07-20T07:09:03;10.70;;;4.35;;
21091;SDS011;10704;42.678;23.288;2023-07-20T07:11:30;16.35;;;5.10;;
21091;SDS011;10704;42.678;23.288;2023-07-20T07:13:56;9.95;;;4.80;;
21091;SDS011;10704;42.678;23.288;2023-07-20T07:16:22;19.25;;;5.95;;
21091;SDS011;10704;42.678;23.288;2023-07-20T07:18:47;14.32;;;5.07;;
21091;SDS011;10704;42.678;23.288;2023-07-20T07:21:16;16.50;;;5.53;;
21091;SDS011;10704;42.678;23.288;2023-07-20T07:23:42;20.25;;;5.72;;
21091;SDS011;10704;42.678;23.288;2023-07-20T07:26:09;14.05;;;4.88;;
21091;SDS011;10704;42.678;23.288;2023-07-20T07:28:35;12.85;;;5.18;;
21091;SDS011;10704;42.678;23.288;2023-07-20T07:31:04;16.95;;;5.68;;
21091;SDS011;10704;42.678;23.288;2023-07-20T07:33:31;14.93;;;7.75;;
21091;SDS011;10704;42.678;23.288;2023-07-20T07:35:57;15.45;;;6.60;;
21091;SDS011;10704;42.678;23.288;2023-07-20T07:38:23;19.73;;;6.03;;
21091;SDS011;10704;42.678;23.288;2023-07-20T07:40:50;14.10;;;4.88;;
21091;SDS011;10704;42.678;23.288;2023-07-20T07:43:15;19.67;;;5.57;;
21091;SDS011;10704;42.678;23.288;2023-07-20T07:45:41;11.95;;;5.05;;
21091;SDS011;10704;42.678;23.288;2023-07-20T07:48:07;15.07;;;5.45;;
21091;SDS011;10704;42.678;23.288;2023-07-20T07:50:36;13.57;;;5.15;;
21091;SDS011;10704;42.678;23.288;2023-07-20T07:53:02;15.30;;;5.20;;
21091;SDS011;10704;42.678;23.288;2023-07-20T07:55:28;14.80;;;4.65;;
21091;SDS011;10704;42.678;23.288;2023-07-20T07:57:54;16.52;;;5.65;;
21091;SDS011;10704;42.678;23.288;2023-07-20T08:00:20;13.73;;;6.07;;
21091;SDS011;10704;42.678;23.288;2023-07-20T08:02:45;14.13;;;5.40;;
21091;SDS011;10704;42.678;23.288;2023-07-20T08:05:13;10.75;;;4.57;;
21091;SDS011;10704;42.678;23.288;2023-07-20T08:07:39;16.73;;;5.38;;
21091;SDS011;10704;42.678;23.288;2023-07-20T08:10:05;17.42;;;5.35;;
21091;SDS011;10704;42.678;23.288;2023-07-20T08:12:32;16.02;;;5.05;;
21091;SDS011;10704;42.678;23.288;2023-07-20T08:14:58;13.85;;;5.22;;
21091;SDS011;10704;42.678;23.288;2023-07-20T08:17:24;15.82;;;4.68;;
21091;SDS011;10704;42.678;23.288;2023-07-20T08:19:49;13.15;;;4.05;;
21091;SDS011;10704;42.678;23.288;2023-07-20T08:22:15;12.82;;;3.60;;
21091;SDS011;10704;42.678;23.288;2023-07-20T08:24:42;11.68;;;2.75;;
21091;SDS011;10704;42.678;23.288;2023-07-20T08:27:08;9.48;;;3.22;;
21091;SDS011;10704;42.678;23.288;2023-07-20T08:29:35;12.52;;;3.28;;
21091;SDS011;10704;42.678;23.288;2023-07-20T08:32:01;11.15;;;4.18;;
21091;SDS011;10704;42.678;23.288;2023-07-20T08:34:27;10.75;;;4.13;;
21091;SDS011;10704;42.678;23.288;2023-07-20T08:36:53;11.15;;;3.22;;
21091;SDS011;10704;42.678;23.288;2023-07-20T08:39:19;12.02;;;2.90;;
21091;SDS011;10704;42.678;23.288;2023-07-20T08:41:47;16.63;;;3.30;;
21091;SDS011;10704;42.678;23.288;2023-07-20T08:44:16;10.30;;;3.10;;
21091;SDS011;10704;42.678;23.288;2023-07-20T08:46:42;15.85;;;3.45;;
21091;SDS011;10704;42.678;23.288;2023-07-20T08:49:08;11.57;;;2.83;;
21091;SDS011;10704;42.678;23.288;2023-07-20T08:51:36;16.35;;;2.72;;
21091;SDS011;10704;42.678;23.288;2023-07-20T08:54:03;9.90;;;3.40;;
21091;SDS011;10704;42.678;23.288;2023-07-20T08:56:29;13.88;;;2.95;;
21091;SDS011;10704;42.678;23.288;2023-07-20T08:58:58;9.65;;;3.10;;
21091;SDS011;10704;42.678;23.288;2023-07-20T09:01:24;12.98;;;4.18;;
21091;SDS011;10704;42.678;23.288;2023-07-20T09:03:52;10.57;;;4.57;;
21091;SDS011;10704;42.678;23.288;2023-07-20T09:06:17;15.68;;;4.18;;
21091;SDS011;10704;42.678;23.288;2023-07-20T09:08:43;14.20;;;3.10;;
21091;SDS011;10704;42.678;23.288;2023-07-20T09:11:11;10.50;;;3.25;;
21091;SDS011;10704;42.678;23.288;2023-07-20T09:13:38;9.10;;;3.17;;
21091;SDS011;10704;42.678;23.288;2023-07-20T09:16:04;11.18;;;2.75;;
21091;SDS011;10704;42.678;23.288;2023-07-20T09:18:31;9.63;;;2.70;;
21091;SDS011;10704;42.678;23.288;2023-07-20T09:20:58;9.73;;;3.25;;
21091;SDS011;10704;42.678;23.288;2023-07-20T09:23:33;9.50;;;2.88;;
21091;SDS011;10704;42.678;23.288;2023-07-20T09:26:12;12.23;;;3.13;;
21091;SDS011;10704;42.678;23.288;2023-07-20T09:28:42;13.73;;;4.20;;
21091;SDS011;10704;42.678;23.288;2023-07-20T09:31:16;14.30;;;4.20;;
21091;SDS011;10704;42.678;23.288;2023-07-20T09:33:46;10.35;;;3.50;;
21091;SDS011;10704;42.678;23.288;2023-07-20T09:36:13;8.38;;;2.97;;
21091;SDS011;10704;42.678;23.288;2023-07-20T09:38:41;10.55;;;3.20;;
21091;SDS011;10704;42.678;23.288;2023-07-20T09:41:08;6.78;;;2.78;;
21091;SDS011;10704;42.678;23.288;2023-07-20T09:43:38;9.75;;;3.50;;
21091;SDS011;10704;42.678;23.288;2023-07-20T09:46:05;12.77;;;3.75;;
21091;SDS011;10704;42.678;23.288;2023-07-20T09:48:30;12.25;;;3.58;;
21091;SDS011;10704;42.678;23.288;2023-07-20T09:50:56;13.45;;;4.07;;
21091;SDS011;10704;42.678;23.288;2023-07-20T09:53:24;11.95;;;4.53;;
21091;SDS011;10704;42.678;23.288;2023-07-20T09:55:50;18.55;;;6.03;;
21091;SDS011;10704;42.678;23.288;2023-07-20T09:58:17;18.02;;;5.93;;
21091;SDS011;10704;42.678;23.288;2023-07-20T10:00:44;13.25;;;6.68;;
21091;SDS011;10704;42.678;23.288;2023-07-20T10:03:19;20.80;;;12.38;;
21091;SDS011;10704;42.678;23.288;2023-07-20T10:06:05;19.67;;;10.82;;
21091;SDS011;10704;42.678;23.288;2023-07-20T10:08:34;13.68;;;5.78;;
21091;SDS011;10704;42.678;23.288;2023-07-20T10:11:05;11.43;;;4.07;;
21091;SDS011;10704;42.678;23.288;2023-07-20T10:13:32;13.02;;;4.93;;
21091;SDS011;10704;42.678;23.288;2023-07-20T10:16:03;11.40;;;4.10;;
21091;SDS011;10704;42.678;23.288;2023-07-20T10:21:31;10.95;;;2.78;;
21091;SDS011;10704;42.678;23.288;2023-07-20T10:24:01;9.68;;;2.83;;
21091;SDS011;10704;42.678;23.288;2023-07-20T10:26:28;10.48;;;3.55;;
21091;SDS011;10704;42.678;23.288;2023-07-20T10:28:54;13.90;;;2.75;;
21091;SDS011;10704;42.678;23.288;2023-07-20T10:31:20;10.95;;;2.70;;
21091;SDS011;10704;42.678;23.288;2023-07-20T10:33:48;8.48;;;2.78;;
21091;SDS011;10704;42.678;23.288;2023-07-20T10:36:15;12.10;;;2.95;;
21091;SDS011;10704;42.678;23.288;2023-07-20T10:38:54;10.18;;;2.95;;
21091;SDS011;10704;42.678;23.288;2023-07-20T10:44:01;6.50;;;2.60;;
21091;SDS011;10704;42.678;23.288;2023-07-20T10:49:07;13.07;;;3.22;;
21091;SDS011;10704;42.678;23.288;2023-07-20T10:51:41;9.77;;;2.90;;
21091;SDS011;10704;42.678;23.288;2023-07-20T10:54:53;8.35;;;3.63;;
21091;SDS011;10704;42.678;23.288;2023-07-20T10:56:55;8.75;;;3.40;;
21091;SDS011;10704;42.678;23.288;2023-07-20T10:59:43;14.18;;;3.75;;
21091;SDS011;10704;42.678;23.288;2023-07-20T11:02:12;10.27;;;3.42;;
21091;SDS011;10704;42.678;23.288;2023-07-20T11:04:38;11.63;;;3.05;;
21091;SDS011;10704;42.678;23.288;2023-07-20T11:07:05;9.48;;;3.13;;
21091;SDS011;10704;42.678;23.288;2023-07-20T11:09:37;10.63;;;3.17;;
21091;SDS011;10704;42.678;23.288;2023-07-20T11:12:10;11.80;;;3.40;;
21091;SDS011;10704;42.678;23.288;2023-07-20T11:14:55;6.65;;;3.45;;
21091;SDS011;10704;42.678;23.288;2023-07-20T11:17:28;11.35;;;3.60;;
21091;SDS011;10704;42.678;23.288;2023-07-20T11:19:55;13.57;;;3.53;;
21091;SDS011;10704;42.678;23.288;2023-07-20T11:22:29;7.45;;;3.22;;
21091;SDS011;10704;42.678;23.288;2023-07-20T11:24:57;8.40;;;3.72;;
21091;SDS011;10704;42.678;23.288;2023-07-20T11:27:23;11.75;;;3.60;;
21091;SDS011;10704;42.678;23.288;2023-07-20T11:29:49;15.15;;;3.72;;
21091;SDS011;10704;42.678;23.288;2023-07-20T11:32:22;14.20;;;3.55;;
21091;SDS011;10704;42.678;23.288;2023-07-20T11:34:49;7.68;;;3.25;;
21091;SDS011;10704;42.678;23.288;2023-07-20T11:37:15;12.02;;;4.15;;
21091;SDS011;10704;42.678;23.288;2023-07-20T11:39:43;12.05;;;3.88;;
21091;SDS011;10704;42.678;23.288;2023-07-20T11:42:09;10.77;;;4.10;;
21091;SDS011;10704;42.678;23.288;2023-07-20T11:44:36;11.00;;;4.28;;
21091;SDS011;10704;42.678;23.288;2023-07-20T11:47:09;11.02;;;5.00;;
21091;SDS011;10704;42.678;23.288;2023-07-20T11:49:40;11.48;;;4.75;;
21091;SDS011;10704;42.678;23.288;2023-07-20T11:52:08;12.80;;;4.90;;
21091;SDS011;10704;42.678;23.288;2023-07-20T11:54:35;10.13;;;4.18;;
21091;SDS011;10704;42.678;23.288;2023-07-20T11:57:04;10.40;;;4.65;;
21091;SDS011;10704;42.678;23.288;2023-07-20T11:59:31;11.23;;;5.00;;
21091;SDS011;10704;42.678;23.288;2023-07-20T12:02:05;10.55;;;4.00;;
21091;SDS011;10704;42.678;23.288;2023-07-20T12:04:31;9.73;;;4.38;;
21091;SDS011;10704;42.678;23.288;2023-07-20T12:06:58;9.35;;;4.80;;
21091;SDS011;10704;42.678;23.288;2023-07-20T12:09:24;11.93;;;4.10;;
21091;SDS011;10704;42.678;23.288;2023-07-20T12:11:50;13.52;;;4.00;;
21091;SDS011;10704;42.678;23.288;2023-07-20T12:14:16;8.20;;;4.07;;
21091;SDS011;10704;42.678;23.288;2023-07-20T12:16:42;9.63;;;4.40;;
21091;SDS011;10704;42.678;23.288;2023-07-20T12:19:09;8.70;;;3.97;;
21091;SDS011;10704;42.678;23.288;2023-07-20T12:21:41;10.85;;;3.92;;
21091;SDS011;10704;42.678;23.288;2023-07-20T12:24:08;7.22;;;3.90;;
21091;SDS011;10704;42.678;23.288;2023-07-20T12:26:35;7.15;;;3.60;;
21091;SDS011;10704;42.678;23.288;2023-07-20T12:29:01;9.45;;;4.07;;
21091;SDS011;10704;42.678;23.288;2023-07-20T12:31:36;7.45;;;3.47;;
21091;SDS011;10704;42.678;23.288;2023-07-20T12:34:02;9.02;;;4.05;;
21091;SDS011;10704;42.678;23.288;2023-07-20T12:36:27;11.07;;;4.63;;
21091;SDS011;10704;42.678;23.288;2023-07-20T12:38:54;8.68;;;3.92;;
21091;SDS011;10704;42.678;23.288;2023-07-20T12:41:20;14.55;;;4.22;;
21091;SDS011;10704;42.678;23.288;2023-07-20T12:43:46;13.00;;;3.85;;
21091;SDS011;10704;42.678;23.288;2023-07-20T12:46:12;9.88;;;3.17;;
21091;SDS011;10704;42.678;23.288;2023-07-20T12:48:39;10.43;;;3.40;;
21091;SDS011;10704;42.678;23.288;2023-07-20T12:51:07;11.02;;;4.22;;
21091;SDS011;10704;42.678;23.288;2023-07-20T12:53:33;8.32;;;3.70;;
21091;SDS011;10704;42.678;23.288;2023-07-20T12:55:59;12.05;;;3.20;;
21091;SDS011;10704;42.678;23.288;2023-07-20T12:58:25;11.68;;;4.43;;
21091;SDS011;10704;42.678;23.288;2023-07-20T13:00:51;8.27;;;3.25;;
21091;SDS011;10704;42.678;23.288;2023-07-20T13:03:18;6.88;;;3.30;;
21091;SDS011;10704;42.678;23.288;2023-07-20T13:05:45;7.15;;;3.28;;
21091;SDS011;10704;42.678;23.288;2023-07-20T13:08:11;6.57;;;3.30;;
21091;SDS011;10704;42.678;23.288;2023-07-20T13:10:37;12.27;;;4.13;;
21091;SDS011;10704;42.678;23.288;2023-07-20T13:13:06;10.93;;;3.85;;
21091;SDS011;10704;42.678;23.288;2023-07-20T13:15:32;9.95;;;3.83;;
21091;SDS011;10704;42.678;23.288;2023-07-20T13:18:07;10.73;;;3.63;;
21091;SDS011;10704;42.678;23.288;2023-07-20T13:20:33;12.85;;;3.55;;
21091;SDS011;10704;42.678;23.288;2023-07-20T13:22:58;8.90;;;3.63;;
21091;SDS011;10704;42.678;23.288;2023-07-20T13:25:25;12.40;;;3.80;;
21091;SDS011;10704;42.678;23.288;2023-07-20T13:27:50;6.10;;;3.08;;
21091;SDS011;10704;42.678;23.288;2023-07-20T13:30:16;9.95;;;3.75;;
21091;SDS011;10704;42.678;23.288;2023-07-20T13:32:43;10.50;;;3.25;;
21091;SDS011;10704;42.678;23.288;2023-07-20T13:35:09;8.27;;;3.47;;
21091;SDS011;10704;42.678;23.288;2023-07-20T13:37:36;13.20;;;3.85;;
21091;SDS011;10704;42.678;23.288;2023-07-20T13:40:02;7.38;;;3.15;;
21091;SDS011;10704;42.678;23.288;2023-07-20T13:42:30;11.50;;;3.42;;
21091;SDS011;10704;42.678;23.288;2023-07-20T13:44:57;8.50;;;3.00;;
21091;SDS011;10704;42.678;23.288;2023-07-20T13:47:22;9.93;;;3.28;;
21091;SDS011;10704;42.678;23.288;2023-07-20T13:49:48;13.10;;;3.50;;
21091;SDS011;10704;42.678;23.288;2023-07-20T13:52:14;9.73;;;3.15;;
21091;SDS011;10704;42.678;23.288;2023-07-20T13:54:40;11.50;;;3.90;;
21091;SDS011;10704;42.678;23.288;2023-07-20T13:57:06;10.90;;;3.50;;
21091;SDS011;10704;42.678;23.288;2023-07-20T13:59:32;11.98;;;3.53;;
21091;SDS011;10704;42.678;23.288;2023-07-20T14:01:58;8.60;;;4.22;;
21091;SDS011;10704;42.678;23.288;2023-07-20T14:04:24;15.00;;;5.65;;
21091;SDS011;10704;42.678;23.288;2023-07-20T14:06:50;17.20;;;6.22;;
21091;SDS011;10704;42.678;23.288;2023-07-20T14:09:16;8.80;;;5.72;;
21091;SDS011;10704;42.678;23.288;2023-07-20T14:11:42;12.07;;;6.72;;
21091;SDS011;10704;42.678;23.288;2023-07-20T14:14:09;19.77;;;10.15;;
21091;SDS011;10704;42.678;23.288;2023-07-20T14:16:34;15.43;;;10.35;;
21091;SDS011;10704;42.678;23.288;2023-07-20T14:19:00;16.33;;;7.20;;
21091;SDS011;10704;42.678;23.288;2023-07-20T14:21:26;13.10;;;5.80;;
21091;SDS011;10704;42.678;23.288;2023-07-20T14:23:54;11.05;;;4.13;;
21091;SDS011;10704;42.678;23.288;2023-07-20T14:26:20;9.13;;;4.53;;
21091;SDS011;10704;42.678;23.288;2023-07-20T14:28:46;10.65;;;4.80;;
21091;SDS011;10704;42.678;23.288;2023-07-20T14:31:12;12.85;;;3.72;;
21091;SDS011;10704;42.678;23.288;2023-07-20T14:33:39;7.03;;;4.03;;
21091;SDS011;10704;42.678;23.288;2023-07-20T14:36:09;11.80;;;4.50;;
21091;SDS011;10704;42.678;23.288;2023-07-20T14:38:36;9.80;;;5.28;;